Time;durP1;ratioP1;P1;durP2;ratioP2;P2;SDS_P1;SDS_P2;PMS_P1;PMS_P2;Temp;Humidity;BMP_temperature;BMP_pressure;BME280_temperature;BME280_humidity;BME280_pressure;Samples;Min_cycle;Max_cycle;Signal;HPM_P1;HPM_P2
2022/11/09 00:01:20;;;;;;;8.07;3.08;;;13.70;99.90;;;;;;5067976;28;20063;-84
2022/11/09 00:03:46;;;;;;;9.27;2.47;;;13.70;99.90;;;;;;5070340;28;20418;-84
2022/11/09 00:06:13;;;;;;;5.75;2.63;;;13.70;99.90;;;;;;5082698;28;20029;-83
2022/11/09 00:08:40;;;;;;;5.57;2.60;;;13.70;99.90;;;;;;5064167;28;20082;-84
2022/11/09 00:11:08;;;;;;;6.25;2.90;;;13.70;99.90;;;;;;5065039;28;20047;-84
2022/11/09 00:13:39;;;;;;;6.00;2.50;;;13.70;99.90;;;;;;5065206;28;20052;-84
2022/11/09 00:16:06;;;;;;;8.20;3.17;;;13.60;99.90;;;;;;5069078;28;20036;-84
2022/11/09 00:18:34;;;;;;;6.18;2.60;;;13.60;99.90;;;;;;5047057;28;20058;-84
2022/11/09 00:21:08;;;;;;;6.68;2.90;;;13.60;99.90;;;;;;5056400;28;20450;-84
2022/11/09 00:23:34;;;;;;;9.73;2.60;;;13.60;99.90;;;;;;5072205;28;20139;-84
2022/11/09 00:26:08;;;;;;;7.22;2.80;;;13.60;99.90;;;;;;5061423;28;20143;-84
2022/11/09 00:28:34;;;;;;;6.43;2.78;;;13.70;99.90;;;;;;5074209;28;20074;-83
2022/11/09 00:31:01;;;;;;;8.60;3.25;;;13.60;99.90;;;;;;5063289;28;20373;-84
2022/11/09 00:33:27;;;;;;;6.63;2.60;;;13.60;99.90;;;;;;5075835;28;20049;-84
2022/11/09 00:35:53;;;;;;;6.20;2.60;;;13.60;99.90;;;;;;5067734;28;20048;-84
2022/11/09 00:38:19;;;;;;;6.07;2.53;;;13.60;99.90;;;;;;5062793;28;20555;-84
2022/11/09 00:40:44;;;;;;;7.10;2.83;;;13.60;99.90;;;;;;5068759;28;20089;-84
2022/11/09 00:43:10;;;;;;;6.20;2.67;;;13.60;99.90;;;;;;5074587;28;20392;-83
2022/11/09 00:45:36;;;;;;;5.40;2.53;;;13.60;99.90;;;;;;5072895;28;20101;-84
2022/11/09 00:48:02;;;;;;;8.35;2.95;;;13.60;99.90;;;;;;5067426;28;20044;-84
2022/11/09 00:50:28;;;;;;;6.70;2.63;;;13.50;99.90;;;;;;5086634;28;20173;-84
2022/11/09 00:52:53;;;;;;;6.20;2.60;;;13.60;99.90;;;;;;5086011;28;20038;-83
2022/11/09 00:55:23;;;;;;;6.97;2.65;;;13.50;99.90;;;;;;5076395;28;20094;-84
2022/11/09 00:57:52;;;;;;;5.20;2.40;;;13.50;99.90;;;;;;5062354;28;20041;-83
2022/11/09 01:00:22;;;;;;;6.90;3.20;;;13.50;99.90;;;;;;5059289;28;20207;-84
2022/11/09 01:02:51;;;;;;;6.45;2.60;;;13.50;99.90;;;;;;5060762;28;20052;-84
2022/11/09 01:05:18;;;;;;;4.75;2.38;;;13.60;99.90;;;;;;5046522;28;20131;-84
2022/11/09 01:07:43;;;;;;;7.22;2.95;;;13.60;99.90;;;;;;5087433;28;20055;-84
2022/11/09 01:10:09;;;;;;;8.93;2.58;;;13.60;99.90;;;;;;5068636;28;20108;-84
2022/11/09 01:12:35;;;;;;;6.68;2.50;;;13.60;99.90;;;;;;5083054;28;20507;-83
2022/11/09 01:15:00;;;;;;;6.35;2.47;;;13.60;99.90;;;;;;5049209;28;20041;-84
2022/11/09 01:17:26;;;;;;;5.18;2.53;;;13.50;99.90;;;;;;5063560;28;20128;-84
2022/11/09 01:19:52;;;;;;;5.72;2.40;;;13.60;99.90;;;;;;5064558;28;20040;-84
2022/11/09 01:22:18;;;;;;;6.43;2.83;;;13.60;99.90;;;;;;5084611;28;20056;-84
2022/11/09 01:24:44;;;;;;;10.35;3.05;;;13.60;99.90;;;;;;5062167;28;20045;-83
2022/11/09 01:27:10;;;;;;;6.20;2.55;;;13.60;99.90;;;;;;5077126;28;20079;-84
2022/11/09 01:29:36;;;;;;;5.28;2.50;;;13.60;99.90;;;;;;5104295;28;20092;-84
2022/11/09 01:32:02;;;;;;;7.63;2.88;;;13.70;99.90;;;;;;5079325;28;20056;-84
2022/11/09 01:34:28;;;;;;;8.48;2.75;;;13.60;99.90;;;;;;5061038;28;20052;-79
2022/11/09 01:36:54;;;;;;;6.43;2.67;;;13.70;99.90;;;;;;5065697;28;20051;-81
2022/11/09 01:39:19;;;;;;;6.10;2.70;;;13.70;99.90;;;;;;5074614;28;20052;-81
2022/11/09 01:41:45;;;;;;;7.20;2.72;;;13.70;99.90;;;;;;5064291;28;20140;-81
2022/11/09 01:44:14;;;;;;;9.30;3.10;;;13.60;99.90;;;;;;5069762;28;20134;-81
2022/11/09 01:46:54;;;;;;;8.70;2.47;;;13.70;99.90;;;;;;5081310;28;20041;-80
2022/11/09 01:49:27;;;;;;;6.85;2.35;;;13.70;99.90;;;;;;5067797;28;20052;-82
2022/11/09 01:51:57;;;;;;;10.43;2.80;;;13.60;99.90;;;;;;5049038;28;20052;-81
2022/11/09 01:54:27;;;;;;;5.85;2.42;;;13.70;99.90;;;;;;5074444;28;20391;-81
2022/11/09 01:56:57;;;;;;;7.75;2.70;;;13.70;99.90;;;;;;5054116;28;20609;-81
2022/11/09 01:59:28;;;;;;;6.82;2.70;;;13.60;99.90;;;;;;5073215;28;20045;-81
2022/11/09 02:01:55;;;;;;;7.50;2.63;;;13.60;99.90;;;;;;5066371;28;20155;-81
2022/11/09 02:04:32;;;;;;;10.82;2.80;;;13.60;99.90;;;;;;5090439;28;20117;-81
2022/11/09 02:06:58;;;;;;;8.60;2.70;;;13.60;99.90;;;;;;5065174;28;20052;-81
2022/11/09 02:09:38;;;;;;;7.90;2.50;;;13.50;99.90;;;;;;5064161;28;20044;-81
2022/11/09 02:12:05;;;;;;;6.28;2.58;;;13.60;99.90;;;;;;5071756;28;20036;-81
2022/11/09 02:14:33;;;;;;;7.05;2.50;;;13.60;99.90;;;;;;5049648;28;20092;-80
2022/11/09 02:16:59;;;;;;;7.93;2.72;;;13.60;99.90;;;;;;5070269;28;20090;-81
2022/11/09 02:19:24;;;;;;;8.27;2.65;;;13.50;99.90;;;;;;5067360;28;20484;-81
2022/11/09 02:21:50;;;;;;;7.10;2.60;;;13.50;99.90;;;;;;5083829;28;20399;-81
2022/11/09 02:24:17;;;;;;;6.38;2.38;;;13.60;99.90;;;;;;5051120;28;20128;-81
2022/11/09 02:26:51;;;;;;;7.77;2.77;;;13.50;99.90;;;;;;5066928;28;20514;-81
2022/11/09 02:29:37;;;;;;;9.23;2.70;;;13.50;99.90;;;;;;5076730;28;20511;-81
2022/11/09 02:32:13;;;;;;;6.32;2.33;;;13.50;99.90;;;;;;5076625;28;20091;-81
2022/11/09 02:34:42;;;;;;;10.55;2.80;;;13.40;99.90;;;;;;5050052;28;20040;-81
2022/11/09 02:37:07;;;;;;;11.25;2.67;;;13.40;99.90;;;;;;5049793;28;20396;-81
2022/11/09 02:39:33;;;;;;;8.18;2.78;;;13.40;99.90;;;;;;5064568;28;20045;-81
2022/11/09 02:42:11;;;;;;;6.80;2.50;;;13.40;99.90;;;;;;5061617;28;20041;-81
2022/11/09 02:44:39;;;;;;;;;;;13.40;99.90;;;;;;5049096;28;20052;-81
2022/11/09 02:47:05;;;;;;;7.88;2.78;;;13.30;99.90;;;;;;5072461;28;19925;-81
2022/11/09 02:49:30;;;;;;;13.13;2.70;;;13.30;99.90;;;;;;5069451;28;20041;-81
2022/11/09 02:51:56;;;;;;;8.75;2.80;;;13.30;99.90;;;;;;5085460;28;20515;-81
2022/11/09 02:54:21;;;;;;;9.02;2.40;;;13.40;99.90;;;;;;5083826;28;20131;-81
2022/11/09 02:56:47;;;;;;;7.15;2.38;;;13.30;99.90;;;;;;5076980;28;20040;-81
2022/11/09 02:59:13;;;;;;;8.73;2.83;;;13.30;99.90;;;;;;5072275;28;20838;-81
2022/11/09 03:01:38;;;;;;;9.82;2.42;;;13.30;99.90;;;;;;5069634;28;20040;-81
2022/11/09 03:04:04;;;;;;;8.18;2.45;;;13.30;99.90;;;;;;5066828;28;20044;-81
2022/11/09 03:06:33;;;;;;;12.63;2.80;;;13.30;99.90;;;;;;5069479;28;20036;-81
2022/11/09 03:09:17;;;;;;;7.20;2.40;;;13.20;99.90;;;;;;5066770;28;20091;-80
2022/11/09 03:11:43;;;;;;;8.75;3.00;;;13.20;99.90;;;;;;5058084;28;20040;-81
2022/11/09 03:14:09;;;;;;;10.15;2.85;;;13.20;99.90;;;;;;5071164;28;20135;-80
2022/11/09 03:16:36;;;;;;;8.43;3.00;;;13.20;99.90;;;;;;5088979;28;20419;-81
2022/11/09 03:19:02;;;;;;;9.65;2.88;;;13.30;99.90;;;;;;5072982;28;20040;-82
2022/11/09 03:21:28;;;;;;;9.50;2.80;;;13.20;99.90;;;;;;5078966;28;20135;-81
2022/11/09 03:23:54;;;;;;;6.22;2.80;;;13.20;99.90;;;;;;5073450;28;20079;-81
2022/11/09 03:26:20;;;;;;;10.73;2.92;;;13.20;99.90;;;;;;5063514;28;20048;-81
2022/11/09 03:28:46;;;;;;;8.55;3.40;;;13.20;99.90;;;;;;5068324;28;20158;-81
2022/11/09 03:31:13;;;;;;;9.60;2.80;;;13.20;99.90;;;;;;5068411;28;20072;-81
2022/11/09 03:33:39;;;;;;;8.10;2.55;;;13.20;99.90;;;;;;5052509;28;20056;-81
2022/11/09 03:36:05;;;;;;;9.90;2.78;;;13.10;99.90;;;;;;5098861;28;20045;-81
2022/11/09 03:38:31;;;;;;;9.68;3.03;;;13.10;99.90;;;;;;5058997;28;20047;-81
2022/11/09 03:40:58;;;;;;;11.07;3.17;;;13.10;99.90;;;;;;5104269;27;20040;-81
2022/11/09 03:43:24;;;;;;;7.70;2.40;;;13.10;99.90;;;;;;5063964;28;20036;-81
2022/11/09 03:45:49;;;;;;;9.65;2.50;;;13.10;99.90;;;;;;5056747;28;20051;-81
2022/11/09 03:48:15;;;;;;;9.68;2.67;;;13.10;99.90;;;;;;5068830;28;20093;-81
2022/11/09 03:50:41;;;;;;;7.13;2.70;;;13.10;99.90;;;;;;5080429;28;20075;-81
2022/11/09 03:53:10;;;;;;;7.43;2.45;;;13.10;99.90;;;;;;5053554;28;20098;-81
2022/11/09 03:55:38;;;;;;;8.25;2.60;;;13.10;99.90;;;;;;5066969;28;20106;-81
2022/11/09 03:58:05;;;;;;;8.27;2.58;;;13.10;99.90;;;;;;5099640;27;20048;-81
2022/11/09 04:00:32;;;;;;;8.38;2.40;;;13.00;99.90;;;;;;5066829;28;20041;-81
2022/11/09 04:02:58;;;;;;;6.72;2.47;;;13.00;99.90;;;;;;5102377;27;20040;-81
2022/11/09 04:05:23;;;;;;;7.25;2.35;;;13.00;99.90;;;;;;5049607;28;20547;-81
2022/11/09 04:07:52;;;;;;;8.55;3.00;;;13.00;99.90;;;;;;5048451;28;20102;-81
2022/11/09 04:10:18;;;;;;;8.20;2.90;;;13.00;99.90;;;;;;5073550;28;20535;-81
2022/11/09 04:12:44;;;;;;;7.63;2.58;;;13.00;99.90;;;;;;5067407;28;20403;-80
2022/11/09 04:15:10;;;;;;;8.80;2.95;;;13.00;99.90;;;;;;5077272;28;20032;-81
2022/11/09 04:17:36;;;;;;;9.68;2.90;;;13.00;99.90;;;;;;5076387;28;20037;-80
2022/11/09 04:20:03;;;;;;;11.55;2.75;;;13.00;99.90;;;;;;5077263;28;20081;-81
2022/11/09 04:22:29;;;;;;;9.30;3.80;;;13.00;99.90;;;;;;5086006;28;20074;-81
2022/11/09 04:24:54;;;;;;;7.90;2.78;;;13.00;99.90;;;;;;5062437;28;20072;-81
2022/11/09 04:27:20;;;;;;;6.65;2.78;;;13.00;99.90;;;;;;5051593;28;20123;-81
2022/11/09 04:29:45;;;;;;;10.82;3.00;;;13.10;99.90;;;;;;5063014;28;20198;-81
2022/11/09 04:32:11;;;;;;;7.55;3.00;;;13.10;99.90;;;;;;5081806;28;20060;-81
2022/11/09 04:34:37;;;;;;;7.18;3.20;;;13.10;99.90;;;;;;5067846;28;20407;-81
2022/11/09 04:37:02;;;;;;;8.07;3.08;;;13.10;99.90;;;;;;5065405;28;20480;-81
2022/11/09 04:39:28;;;;;;;7.93;3.17;;;13.00;99.90;;;;;;5067772;28;20044;-81
2022/11/09 04:41:53;;;;;;;8.15;2.97;;;13.10;99.90;;;;;;5066466;28;20436;-81
2022/11/09 04:44:19;;;;;;;9.57;2.65;;;13.10;99.90;;;;;;5058831;28;20052;-81
2022/11/09 04:46:45;;;;;;;9.90;2.83;;;13.10;99.90;;;;;;5086640;28;20663;-81
2022/11/09 04:49:10;;;;;;;10.95;2.70;;;13.10;99.90;;;;;;5065479;28;20558;-79
2022/11/09 04:51:36;;;;;;;8.50;2.75;;;13.00;99.90;;;;;;5046074;28;20048;-80
2022/11/09 04:54:01;;;;;;;7.40;2.60;;;13.10;99.90;;;;;;5057513;28;20059;-81
2022/11/09 04:56:27;;;;;;;11.05;2.75;;;13.00;99.90;;;;;;5067015;28;20171;-81
2022/11/09 04:58:53;;;;;;;7.97;2.83;;;13.00;99.90;;;;;;5053422;28;20120;-81
2022/11/09 05:01:18;;;;;;;6.80;2.70;;;13.00;99.90;;;;;;5080690;28;20199;-81
2022/11/09 05:03:44;;;;;;;10.93;2.80;;;13.10;99.90;;;;;;5047932;28;20476;-82
2022/11/09 05:08:54;;;;;;;8.13;2.80;;;13.00;99.90;;;;;;5058556;28;20072;-81
2022/11/09 05:11:20;;;;;;;7.85;3.03;;;13.00;99.90;;;;;;5055846;28;20037;-81
2022/11/09 05:13:46;;;;;;;7.60;2.65;;;13.00;99.90;;;;;;5065385;28;20048;-81
2022/11/09 05:16:12;;;;;;;8.95;2.47;;;13.00;99.90;;;;;;5076306;28;20537;-81
2022/11/09 05:18:38;;;;;;;7.85;2.50;;;13.00;99.90;;;;;;5066384;28;20045;-81
2022/11/09 05:21:04;;;;;;;8.45;3.08;;;12.90;99.90;;;;;;5065914;28;20625;-81
2022/11/09 05:26:14;;;;;;;7.50;2.72;;;12.90;99.90;;;;;;5066054;28;20746;-81
2022/11/09 05:28:39;;;;;;;10.65;3.05;;;12.90;99.90;;;;;;5056588;28;20085;-81
2022/11/09 05:31:05;;;;;;;10.50;2.63;;;12.90;99.90;;;;;;5065056;28;20049;-82
2022/11/09 05:33:31;;;;;;;10.70;2.95;;;12.90;99.90;;;;;;5058574;28;20433;-81
2022/11/09 05:35:57;;;;;;;10.00;3.22;;;12.90;99.90;;;;;;5070552;28;20041;-81
2022/11/09 05:38:24;;;;;;;9.82;3.22;;;12.90;99.90;;;;;;5071359;28;20047;-81
2022/11/09 05:40:51;;;;;;;8.27;2.92;;;12.80;99.90;;;;;;5078856;28;20044;-81
2022/11/09 05:43:17;;;;;;;9.07;2.88;;;12.80;99.90;;;;;;5076463;28;20052;-81
2022/11/09 05:45:43;;;;;;;9.55;2.80;;;12.80;99.90;;;;;;5068631;28;20502;-81
2022/11/09 05:48:10;;;;;;;9.25;2.97;;;12.80;99.90;;;;;;5054776;28;20036;-81
2022/11/09 05:50:36;;;;;;;6.93;2.17;;;12.80;99.90;;;;;;5066240;28;20051;-81
2022/11/09 05:53:02;;;;;;;10.25;3.20;;;12.80;99.90;;;;;;5059423;28;20533;-81
2022/11/09 05:55:28;;;;;;;7.72;2.58;;;12.80;99.90;;;;;;5084539;28;20040;-82
2022/11/09 05:57:54;;;;;;;10.32;2.40;;;12.70;99.90;;;;;;5072910;28;20265;-82
2022/11/09 06:00:20;;;;;;;8.25;2.30;;;12.70;99.90;;;;;;5067752;28;20062;-81
2022/11/09 06:02:46;;;;;;;7.32;2.60;;;12.70;99.90;;;;;;5068547;28;20048;-81
2022/11/09 06:05:12;;;;;;;8.98;2.75;;;12.70;99.90;;;;;;5069691;28;20044;-82
2022/11/09 06:07:37;;;;;;;8.73;2.95;;;12.70;99.90;;;;;;5070235;28;20054;-80
2022/11/09 06:10:04;;;;;;;11.05;2.38;;;12.70;99.90;;;;;;5070003;28;20051;-81
2022/11/09 06:12:29;;;;;;;8.15;2.40;;;12.70;99.90;;;;;;5068835;28;20113;-80
2022/11/09 06:14:55;;;;;;;11.15;2.55;;;12.60;99.90;;;;;;5071408;28;20040;-83
2022/11/09 06:17:21;;;;;;;9.93;2.97;;;12.70;99.90;;;;;;5049875;28;20110;-83
2022/11/09 06:19:46;;;;;;;10.00;2.80;;;12.70;99.90;;;;;;5086637;28;20052;-83
2022/11/09 06:22:12;;;;;;;9.13;2.50;;;12.60;99.90;;;;;;5074316;28;20072;-83
2022/11/09 06:24:38;;;;;;;11.20;2.75;;;12.70;99.90;;;;;;5052834;28;20045;-83
2022/11/09 06:27:04;;;;;;;9.68;2.90;;;12.60;99.90;;;;;;5112906;27;20036;-83
2022/11/09 06:29:30;;;;;;;10.45;2.88;;;12.60;99.90;;;;;;5070784;28;20049;-83
2022/11/09 06:31:55;;;;;;;9.43;2.60;;;12.60;99.90;;;;;;5075736;28;20052;-80
2022/11/09 06:34:21;;;;;;;7.85;2.45;;;12.50;99.90;;;;;;5095550;27;20047;-82
2022/11/09 06:36:47;;;;;;;10.18;2.65;;;12.50;99.90;;;;;;5060541;28;20529;-80
2022/11/09 06:39:12;;;;;;;10.68;2.50;;;12.50;99.90;;;;;;5067523;28;20040;-81
2022/11/09 06:41:38;;;;;;;11.05;3.20;;;12.50;99.90;;;;;;5061256;28;20454;-80
2022/11/09 06:44:04;;;;;;;9.93;2.80;;;12.50;99.90;;;;;;5068705;28;20060;-80
2022/11/09 06:46:33;;;;;;;12.70;3.13;;;12.50;99.90;;;;;;5066392;28;20700;-80
2022/11/09 06:48:59;;;;;;;13.30;2.90;;;12.50;99.90;;;;;;5070614;28;20087;-80
2022/11/09 06:51:25;;;;;;;9.93;2.78;;;12.50;99.90;;;;;;5068495;28;20377;-80
2022/11/09 06:53:51;;;;;;;12.63;2.95;;;12.50;99.90;;;;;;5079952;28;20048;-80
2022/11/09 06:56:17;;;;;;;11.32;2.78;;;12.50;99.90;;;;;;5069462;28;20037;-83
2022/11/09 06:58:42;;;;;;;11.77;3.05;;;12.50;99.90;;;;;;5064929;28;20104;-84
2022/11/09 07:01:15;;;;;;;11.80;3.15;;;12.50;99.90;;;;;;5072737;28;20071;-84
2022/11/09 07:03:41;;;;;;;9.30;2.88;;;12.50;99.90;;;;;;5061285;28;20055;-84
2022/11/09 07:06:10;;;;;;;10.73;3.00;;;12.40;99.90;;;;;;5056529;28;20048;-84
2022/11/09 07:08:36;;;;;;;13.75;3.22;;;12.40;99.90;;;;;;5060576;28;20074;-84
2022/11/09 07:11:08;;;;;;;11.27;2.72;;;12.40;99.90;;;;;;5060336;28;20078;-84
2022/11/09 07:13:34;;;;;;;12.52;3.15;;;12.40;99.90;;;;;;5068516;28;20044;-84
2022/11/09 07:15:59;;;;;;;13.27;3.70;;;12.30;99.90;;;;;;5055695;28;20100;-83
2022/11/09 07:18:25;;;;;;;9.85;2.92;;;12.40;99.90;;;;;;5061904;28;20048;-84
2022/11/09 07:20:51;;;;;;;12.68;3.35;;;12.40;99.90;;;;;;5059496;28;20045;-84
2022/11/09 07:23:17;;;;;;;11.45;3.10;;;12.40;99.90;;;;;;5056424;28;20173;-83
2022/11/09 07:25:43;;;;;;;11.35;3.35;;;12.40;99.90;;;;;;5062322;28;20089;-83
2022/11/09 07:28:10;;;;;;;12.15;3.40;;;12.40;99.90;;;;;;5063399;28;20072;-84
2022/11/09 07:30:37;;;;;;;11.70;3.03;;;12.40;99.90;;;;;;5055138;28;20073;-84
2022/11/09 07:33:11;;;;;;;11.80;2.78;;;12.40;99.90;;;;;;5057096;28;20098;-84
2022/11/09 07:35:37;;;;;;;11.00;3.33;;;12.40;99.90;;;;;;5054266;28;20044;-84
2022/11/09 07:38:03;;;;;;;12.10;3.20;;;12.40;99.90;;;;;;5060058;28;20400;-84
2022/11/09 07:40:29;;;;;;;11.75;3.20;;;12.40;99.90;;;;;;5056952;28;20441;-85
2022/11/09 07:42:59;;;;;;;14.23;3.50;;;12.50;99.90;;;;;;5058375;28;20040;-84
2022/11/09 07:45:25;;;;;;;10.07;3.22;;;12.50;99.90;;;;;;5088092;27;20550;-84
2022/11/09 07:47:59;;;;;;;9.82;2.70;;;12.50;99.90;;;;;;5064482;28;20051;-85
2022/11/09 07:50:26;;;;;;;13.43;3.28;;;12.50;99.90;;;;;;5070915;28;20089;-84
2022/11/09 07:52:51;;;;;;;9.40;2.77;;;12.60;99.90;;;;;;5065729;28;20055;-84
2022/11/09 07:55:17;;;;;;;10.40;2.67;;;12.60;99.90;;;;;;5069234;28;20031;-84
2022/11/09 07:57:43;;;;;;;10.55;2.70;;;12.70;99.90;;;;;;5070249;28;20120;-84
2022/11/09 08:00:10;;;;;;;11.80;3.15;;;12.60;99.90;;;;;;5072316;28;20572;-84
2022/11/09 08:02:37;;;;;;;13.38;3.15;;;12.60;99.90;;;;;;5070713;28;20499;-86
2022/11/09 08:05:03;;;;;;;12.45;2.97;;;12.70;99.90;;;;;;5069251;28;20098;-85
2022/11/09 08:07:28;;;;;;;10.32;2.85;;;12.70;99.90;;;;;;5066068;28;20056;-81
2022/11/09 08:09:54;;;;;;;11.65;2.80;;;12.70;99.90;;;;;;5066228;28;20042;-89
2022/11/09 08:12:20;;;;;;;11.48;2.83;;;12.70;99.90;;;;;;5065419;28;20117;-85
2022/11/09 08:14:46;;;;;;;10.80;3.03;;;12.80;99.90;;;;;;5074521;28;20116;-85
2022/11/09 08:17:11;;;;;;;10.07;3.03;;;12.80;99.90;;;;;;5073062;28;20035;-86
2022/11/09 08:19:37;;;;;;;10.35;3.03;;;12.80;99.90;;;;;;5086302;28;20051;-85
2022/11/09 08:22:03;;;;;;;11.55;2.90;;;12.90;99.90;;;;;;5068653;28;20596;-89
2022/11/09 08:24:28;;;;;;;15.93;3.53;;;12.90;99.90;;;;;;5067434;28;20036;-87
2022/11/09 08:26:54;;;;;;;11.40;2.80;;;12.90;99.90;;;;;;5067543;28;20060;-90
2022/11/09 08:29:20;;;;;;;11.48;2.90;;;12.90;99.90;;;;;;5066038;28;20538;-88
2022/11/09 08:31:49;;;;;;;12.30;3.08;;;12.90;99.90;;;;;;5069589;28;20070;-91
2022/11/09 08:34:14;;;;;;;14.98;3.28;;;12.90;99.90;;;;;;5068096;28;20044;-92
2022/11/09 08:36:40;;;;;;;9.95;2.92;;;13.00;99.90;;;;;;5066163;28;20539;-89
2022/11/09 08:39:06;;;;;;;10.00;2.90;;;12.90;99.90;;;;;;5065290;28;20060;-87
2022/11/09 08:41:32;;;;;;;12.90;2.97;;;13.00;99.90;;;;;;5068373;28;20044;-86
2022/11/09 08:43:58;;;;;;;12.82;3.55;;;13.10;99.90;;;;;;5076238;28;20044;-89
2022/11/09 08:46:24;;;;;;;13.68;3.25;;;13.00;99.90;;;;;;5081744;28;20032;-85
2022/11/09 08:48:50;;;;;;;11.50;3.15;;;13.10;99.90;;;;;;5063966;28;20041;-88
2022/11/09 08:51:15;;;;;;;13.93;3.10;;;13.10;99.90;;;;;;5066982;28;20042;-88
2022/11/09 08:53:41;;;;;;;10.52;2.95;;;13.20;99.90;;;;;;5071975;28;20128;-89
2022/11/09 08:56:08;;;;;;;14.73;3.38;;;13.20;99.90;;;;;;5088774;28;20040;-84
2022/11/09 08:58:35;;;;;;;9.50;2.42;;;13.20;99.90;;;;;;5069023;28;20806;-84
2022/11/09 09:01:04;;;;;;;11.43;3.20;;;13.30;99.90;;;;;;5086702;28;20040;-88
2022/11/09 09:03:30;;;;;;;10.52;2.97;;;13.30;99.90;;;;;;5085342;28;20043;-84
2022/11/09 09:05:55;;;;;;;11.88;3.00;;;13.30;99.90;;;;;;5058660;28;20078;-87
2022/11/09 09:08:21;;;;;;;12.07;3.28;;;13.20;99.90;;;;;;5080711;28;20052;-83
2022/11/09 09:10:47;;;;;;;9.75;2.88;;;13.30;99.90;;;;;;5072148;28;20583;-85
2022/11/09 09:13:13;;;;;;;12.95;3.25;;;13.40;99.90;;;;;;5068160;28;20044;-86
2022/11/09 09:15:39;;;;;;;11.38;3.10;;;13.40;99.90;;;;;;5070559;28;20079;-85
2022/11/09 09:18:05;;;;;;;11.23;2.92;;;13.40;99.90;;;;;;5071534;28;20109;-86
2022/11/09 09:20:31;;;;;;;13.90;2.92;;;13.40;99.90;;;;;;5065383;28;20130;-88
2022/11/09 09:22:58;;;;;;;12.98;3.20;;;13.40;99.90;;;;;;5071728;28;20039;-84
2022/11/09 09:25:24;;;;;;;;;;;13.40;99.90;;;;;;5068265;28;20051;-86
2022/11/09 09:27:50;;;;;;;13.95;3.50;;;13.40;99.90;;;;;;5069793;28;20283;-87
2022/11/09 09:30:16;;;;;;;11.15;2.80;;;13.40;99.90;;;;;;5067892;28;20045;-83
2022/11/09 09:32:41;;;;;;;12.25;2.80;;;13.50;99.90;;;;;;5063646;28;20036;-86
2022/11/09 09:35:08;;;;;;;10.60;2.80;;;13.50;99.90;;;;;;5083101;28;20042;-82
2022/11/09 09:37:33;;;;;;;13.95;2.72;;;13.50;99.90;;;;;;5077262;28;20040;-85
2022/11/09 09:39:59;;;;;;;10.18;2.55;;;13.60;99.90;;;;;;5084548;28;20059;-87
2022/11/09 09:42:35;;;;;;;11.20;2.90;;;13.60;99.90;;;;;;5066580;28;20055;-81
2022/11/09 09:45:14;;;;;;;11.73;3.65;;;13.60;99.90;;;;;;5101327;28;20047;-82
2022/11/09 09:47:54;;;;;;;16.20;3.10;;;13.60;99.90;;;;;;5073512;28;20086;-85
2022/11/09 09:50:22;;;;;;;13.85;3.17;;;13.60;99.90;;;;;;5089170;28;20820;-84
2022/11/09 09:53:03;;;;;;;11.20;3.15;;;13.70;99.90;;;;;;5091326;28;20047;-85
2022/11/09 09:55:43;;;;;;;13.32;3.03;;;13.70;99.90;;;;;;5086362;28;20094;-85
2022/11/09 09:58:37;;;;;;;15.88;2.90;;;13.70;99.90;;;;;;5092283;28;20040;-84
2022/11/09 10:01:14;;;;;;;12.63;3.15;;;13.80;99.90;;;;;;5087176;28;20056;-84
2022/11/09 10:03:40;;;;;;;10.68;2.78;;;13.70;99.90;;;;;;5091845;28;20067;-84
2022/11/09 10:06:32;;;;;;;12.00;2.85;;;13.70;99.90;;;;;;5090442;28;20394;-84
2022/11/09 10:09:05;;;;;;;13.05;3.05;;;13.80;99.90;;;;;;5088834;28;20044;-85
2022/11/09 10:11:30;;;;;;;10.93;3.03;;;13.90;99.90;;;;;;5090978;28;20040;-84
2022/11/09 10:14:03;;;;;;;14.45;3.47;;;13.90;99.90;;;;;;5091521;28;20109;-84
2022/11/09 10:17:09;;;;;;;10.50;2.92;;;14.00;99.90;;;;;;5083398;28;20040;-85
2022/11/09 10:19:48;;;;;;;12.05;3.47;;;14.00;99.90;;;;;;5091360;28;20051;-85
2022/11/09 10:22:37;;;;;;;12.30;3.38;;;14.10;99.90;;;;;;5090525;28;20058;-85
2022/11/09 10:25:13;;;;;;;10.40;3.67;;;14.10;99.90;;;;;;5119808;27;20040;-85
2022/11/09 10:27:48;;;;;;;11.73;3.25;;;14.10;99.90;;;;;;5058453;28;20107;-81
2022/11/09 10:30:16;;;;;;;11.82;3.15;;;14.10;99.90;;;;;;5073637;28;20048;-85
2022/11/09 10:32:45;;;;;;;10.50;2.95;;;14.10;99.90;;;;;;5070536;28;20133;-91
2022/11/09 10:35:29;;;;;;;13.70;3.13;;;14.10;99.90;;;;;;5071901;28;20041;-89
2022/11/09 10:37:55;;;;;;;13.80;3.33;;;14.10;99.90;;;;;;5064110;28;20055;-88
2022/11/09 10:40:36;;;;;;;11.52;3.00;;;14.10;99.90;;;;;;5070212;28;20071;-90
2022/11/09 10:43:09;;;;;;;12.85;3.00;;;14.10;99.90;;;;;;5113369;27;20049;-89
2022/11/09 10:45:43;;;;;;;12.25;3.15;;;14.10;99.90;;;;;;5072826;28;20044;-82
2022/11/09 10:48:11;;;;;;;13.43;3.08;;;14.10;99.90;;;;;;5084778;28;20399;-82
2022/11/09 10:50:46;;;;;;;9.88;2.92;;;14.20;99.90;;;;;;5089994;28;20068;-81
2022/11/09 10:53:18;;;;;;;12.10;3.03;;;14.30;99.90;;;;;;5086560;28;20039;-81
2022/11/09 10:56:03;;;;;;;10.55;2.90;;;14.40;99.90;;;;;;5084307;28;20469;-77
2022/11/09 10:58:32;;;;;;;10.68;2.78;;;14.40;99.90;;;;;;5089772;28;20048;-77
2022/11/09 11:01:11;;;;;;;16.85;3.00;;;14.40;99.90;;;;;;5080411;28;20483;-77
2022/11/09 11:03:38;;;;;;;11.88;2.70;;;14.50;99.90;;;;;;5065248;28;20047;-81
2022/11/09 11:06:15;;;;;;;11.82;2.95;;;14.50;99.90;;;;;;5087396;28;20040;-84
2022/11/09 11:08:46;;;;;;;13.93;2.97;;;14.50;99.90;;;;;;5090428;28;20044;-84
2022/11/09 11:11:33;;;;;;;13.40;3.08;;;14.50;99.90;;;;;;5077516;28;20052;-84
2022/11/09 11:14:20;;;;;;;9.20;2.50;;;14.50;99.90;;;;;;5087644;28;20044;-77
2022/11/09 11:16:47;;;;;;;10.65;2.50;;;14.60;99.90;;;;;;5074594;28;20051;-75
2022/11/09 11:19:33;;;;;;;9.90;2.50;;;14.60;99.90;;;;;;5085929;28;20086;-82
2022/11/09 11:22:11;;;;;;;8.23;2.50;;;14.60;99.90;;;;;;5062618;28;20071;-86
2022/11/09 11:24:57;;;;;;;9.48;2.47;;;14.70;99.90;;;;;;5053177;28;20049;-81
2022/11/09 11:27:31;;;;;;;11.32;2.75;;;14.70;99.90;;;;;;5075700;28;20090;-79
2022/11/09 11:30:16;;;;;;;8.43;2.33;;;14.70;99.90;;;;;;5057102;28;20044;-80
2022/11/09 11:32:42;;;;;;;10.43;2.70;;;14.70;99.90;;;;;;5069211;28;20053;-77
2022/11/09 11:35:37;;;;;;;10.88;3.10;;;14.70;99.90;;;;;;5074850;28;20047;-79
2022/11/09 11:38:16;;;;;;;11.63;2.72;;;14.80;99.90;;;;;;5083684;28;20514;-80
2022/11/09 11:40:48;;;;;;;14.32;3.17;;;14.80;99.90;;;;;;5068324;28;20064;-79
2022/11/09 11:43:24;;;;;;;13.15;3.22;;;14.70;99.90;;;;;;5067527;28;20877;-81
2022/11/09 11:46:10;;;;;;;12.75;2.83;;;14.70;99.90;;;;;;5075797;28;20146;-80
2022/11/09 11:49:26;;;;;;;10.70;2.53;;;14.60;99.90;;;;;;5074848;28;20424;-86
2022/11/09 11:52:27;;;;;;;12.50;3.10;;;14.50;99.90;;;;;;5049685;28;20064;-76
2022/11/09 11:55:19;;;;;;;11.07;3.13;;;14.50;99.90;;;;;;5061644;28;20105;-80
2022/11/09 11:57:56;;;;;;;10.13;2.85;;;14.50;99.90;;;;;;5078449;28;20052;-79
2022/11/09 12:00:22;;;;;;;13.00;3.17;;;14.50;99.90;;;;;;5083501;28;20044;-80
2022/11/09 12:03:27;;;;;;;9.57;2.45;;;14.50;99.90;;;;;;5088684;28;20051;-79
2022/11/09 12:06:07;;;;;;;11.07;2.75;;;14.40;99.90;;;;;;5067606;28;20562;-80
2022/11/09 12:08:54;;;;;;;13.65;2.85;;;14.40;99.90;;;;;;5088492;28;20151;-79
2022/11/09 12:11:55;;;;;;;11.75;2.63;;;14.40;99.90;;;;;;5087825;28;20073;-79
2022/11/09 12:14:55;;;;;;;9.48;2.35;;;14.40;99.90;;;;;;5065472;28;20181;-79
2022/11/09 12:17:29;;;;;;;9.10;2.38;;;14.40;99.90;;;;;;5087878;28;20052;-79
2022/11/09 12:20:42;;;;;;;13.57;2.75;;;14.50;99.90;;;;;;5081830;28;20048;-79
2022/11/09 12:23:39;;;;;;;11.38;2.50;;;14.50;99.90;;;;;;5053492;28;20052;-80
2022/11/09 12:26:10;;;;;;;12.15;2.60;;;14.50;99.90;;;;;;5088976;28;20048;-79
2022/11/09 12:28:38;;;;;;;9.82;2.45;;;14.50;99.90;;;;;;5082738;28;20134;-79
2022/11/09 12:31:13;;;;;;;11.38;2.45;;;14.50;99.90;;;;;;5084043;28;20047;-80
2022/11/09 12:33:50;;;;;;;9.52;2.55;;;14.60;99.90;;;;;;5078105;28;20549;-80
2022/11/09 12:36:29;;;;;;;7.63;2.42;;;14.60;99.90;;;;;;5066874;28;20059;-79
2022/11/09 12:39:10;;;;;;;9.55;2.08;;;14.50;99.90;;;;;;5067724;28;20151;-79
2022/11/09 12:41:38;;;;;;;9.57;2.22;;;14.50;99.90;;;;;;5076462;28;20036;-84
2022/11/09 12:44:15;;;;;;;10.68;2.33;;;14.50;99.90;;;;;;5076047;28;20083;-88
2022/11/09 12:46:51;;;;;;;11.55;2.92;;;14.50;99.90;;;;;;5084557;28;20487;-86
2022/11/09 12:49:30;;;;;;;9.45;2.17;;;14.50;99.90;;;;;;5074866;28;20044;-83
2022/11/09 12:51:56;;;;;;;11.38;2.78;;;14.60;99.90;;;;;;5069533;28;20154;-86
2022/11/09 12:54:22;;;;;;;8.57;2.28;;;14.50;99.90;;;;;;5067660;28;20445;-87
2022/11/09 12:56:58;;;;;;;13.10;3.57;;;14.60;99.90;;;;;;5068304;28;20518;-81
2022/11/09 12:59:27;;;;;;;10.10;2.78;;;14.60;99.90;;;;;;5080724;28;20109;-81
2022/11/09 13:01:55;;;;;;;11.68;2.63;;;14.70;99.90;;;;;;5087451;28;20132;-75